sensor_id;sensor_type;location;lat;lon;timestamp;temperature;humidity
12959;DHT22;6544;51.666;6.634;2023-05-18T00:01:03;9.50;1.00
12959;DHT22;6544;51.666;6.634;2023-05-18T00:03:31;9.40;1.00
12959;DHT22;6544;51.666;6.634;2023-05-18T00:05:58;9.50;1.00
12959;DHT22;6544;51.666;6.634;2023-05-18T00:08:29;9.50;1.00
12959;DHT22;6544;51.666;6.634;2023-05-18T00:10:56;9.30;1.00
12959;DHT22;6544;51.666;6.634;2023-05-18T00:13:22;9.20;1.00
12959;DHT22;6544;51.666;6.634;2023-05-18T00:15:49;9.20;1.00
12959;DHT22;6544;51.666;6.634;2023-05-18T00:18:16;9.10;1.00
12959;DHT22;6544;51.666;6.634;2023-05-18T00:20:50;8.90;1.00
12959;DHT22;6544;51.666;6.634;2023-05-18T00:23:24;9.00;1.00
12959;DHT22;6544;51.666;6.634;2023-05-18T00:25:55;8.80;1.00
12959;DHT22;6544;51.666;6.634;2023-05-18T00:28:21;8.70;1.00
12959;DHT22;6544;51.666;6.634;2023-05-18T00:30:48;8.70;1.00
12959;DHT22;6544;51.666;6.634;2023-05-18T00:33:15;8.60;1.00
12959;DHT22;6544;51.666;6.634;2023-05-18T00:35:42;8.70;1.00
12959;DHT22;6544;51.666;6.634;2023-05-18T00:38:10;8.70;1.00
12959;DHT22;6544;51.666;6.634;2023-05-18T00:40:38;8.80;1.00
12959;DHT22;6544;51.666;6.634;2023-05-18T00:43:05;9.00;1.00
12959;DHT22;6544;51.666;6.634;2023-05-18T00:45:32;9.00;1.00
12959;DHT22;6544;51.666;6.634;2023-05-18T00:47:59;9.10;1.00
12959;DHT22;6544;51.666;6.634;2023-05-18T00:50:26;9.10;1.00
12959;DHT22;6544;51.666;6.634;2023-05-18T00:52:53;8.90;1.00
12959;DHT22;6544;51.666;6.634;2023-05-18T00:55:22;9.00;1.00
12959;DHT22;6544;51.666;6.634;2023-05-18T00:57:49;9.10;1.00
12959;DHT22;6544;51.666;6.634;2023-05-18T01:00:17;9.00;1.00
12959;DHT22;6544;51.666;6.634;2023-05-18T01:02:45;9.20;1.00
12959;DHT22;6544;51.666;6.634;2023-05-18T01:05:12;9.10;1.00
12959;DHT22;6544;51.666;6.634;2023-05-18T01:07:39;9.10;1.00
12959;DHT22;6544;51.666;6.634;2023-05-18T01:10:08;9.10;1.00
12959;DHT22;6544;51.666;6.634;2023-05-18T01:12:42;9.10;1.00
12959;DHT22;6544;51.666;6.634;2023-05-18T01:15:13;9.10;1.00
12959;DHT22;6544;51.666;6.634;2023-05-18T01:17:49;8.70;1.00
12959;DHT22;6544;51.666;6.634;2023-05-18T01:20:23;8.40;1.00
12959;DHT22;6544;51.666;6.634;2023-05-18T01:23:05;8.30;1.00
12959;DHT22;6544;51.666;6.634;2023-05-18T01:25:45;8.10;1.00
12959;DHT22;6544;51.666;6.634;2023-05-18T01:28:18;8.30;1.00
12959;DHT22;6544;51.666;6.634;2023-05-18T01:30:46;8.30;1.00
12959;DHT22;6544;51.666;6.634;2023-05-18T01:33:13;8.50;1.00
12959;DHT22;6544;51.666;6.634;2023-05-18T01:35:40;8.50;1.00
12959;DHT22;6544;51.666;6.634;2023-05-18T01:38:13;8.50;1.00
12959;DHT22;6544;51.666;6.634;2023-05-18T01:40:47;8.50;1.00
12959;DHT22;6544;51.666;6.634;2023-05-18T01:43:19;8.50;1.00
12959;DHT22;6544;51.666;6.634;2023-05-18T01:45:50;8.50;1.00
12959;DHT22;6544;51.666;6.634;2023-05-18T01:48:23;8.60;1.00
12959;DHT22;6544;51.666;6.634;2023-05-18T01:50:54;8.60;1.00
12959;DHT22;6544;51.666;6.634;2023-05-18T01:53:25;8.60;1.00
12959;DHT22;6544;51.666;6.634;2023-05-18T01:55:54;8.40;1.00
12959;DHT22;6544;51.666;6.634;2023-05-18T01:58:23;8.20;1.00
12959;DHT22;6544;51.666;6.634;2023-05-18T02:00:51;8.30;1.00
12959;DHT22;6544;51.666;6.634;2023-05-18T02:03:17;8.30;1.00
12959;DHT22;6544;51.666;6.634;2023-05-18T02:05:44;8.30;1.00
12959;DHT22;6544;51.666;6.634;2023-05-18T02:08:11;8.30;1.00
12959;DHT22;6544;51.666;6.634;2023-05-18T02:10:38;8.40;1.00
12959;DHT22;6544;51.666;6.634;2023-05-18T02:13:05;8.30;1.00
12959;DHT22;6544;51.666;6.634;2023-05-18T02:15:33;8.00;1.00
12959;DHT22;6544;51.666;6.634;2023-05-18T02:18:00;8.00;1.00
12959;DHT22;6544;51.666;6.634;2023-05-18T02:20:27;8.20;1.00
12959;DHT22;6544;51.666;6.634;2023-05-18T02:22:57;8.30;1.00
12959;DHT22;6544;51.666;6.634;2023-05-18T02:25:25;8.20;1.00
12959;DHT22;6544;51.666;6.634;2023-05-18T02:27:52;8.30;1.00
12959;DHT22;6544;51.666;6.634;2023-05-18T02:30:19;8.30;1.00
12959;DHT22;6544;51.666;6.634;2023-05-18T02:32:48;8.10;1.00
12959;DHT22;6544;51.666;6.634;2023-05-18T02:35:15;8.20;1.00
12959;DHT22;6544;51.666;6.634;2023-05-18T02:37:42;8.20;1.00
12959;DHT22;6544;51.666;6.634;2023-05-18T02:40:10;8.20;1.00
12959;DHT22;6544;51.666;6.634;2023-05-18T02:42:38;8.30;1.00
12959;DHT22;6544;51.666;6.634;2023-05-18T02:45:05;8.30;1.00
12959;DHT22;6544;51.666;6.634;2023-05-18T02:47:32;8.30;1.00
12959;DHT22;6544;51.666;6.634;2023-05-18T02:50:01;8.10;1.00
12959;DHT22;6544;51.666;6.634;2023-05-18T02:52:28;8.20;1.00
12959;DHT22;6544;51.666;6.634;2023-05-18T02:54:55;8.20;1.00
12959;DHT22;6544;51.666;6.634;2023-05-18T02:57:22;8.20;1.00
12959;DHT22;6544;51.666;6.634;2023-05-18T02:59:49;8.20;1.00
12959;DHT22;6544;51.666;6.634;2023-05-18T03:02:16;8.00;1.00
12959;DHT22;6544;51.666;6.634;2023-05-18T03:04:42;7.90;1.00
12959;DHT22;6544;51.666;6.634;2023-05-18T03:07:13;8.00;1.00
12959;DHT22;6544;51.666;6.634;2023-05-18T03:09:39;8.00;1.00
12959;DHT22;6544;51.666;6.634;2023-05-18T03:12:07;8.10;1.00
12959;DHT22;6544;51.666;6.634;2023-05-18T03:14:34;8.10;1.00
12959;DHT22;6544;51.666;6.634;2023-05-18T03:17:01;8.20;1.00
12959;DHT22;6544;51.666;6.634;2023-05-18T03:19:30;8.10;1.00
12959;DHT22;6544;51.666;6.634;2023-05-18T03:21:57;8.10;1.00
12959;DHT22;6544;51.666;6.634;2023-05-18T03:24:25;8.20;1.00
12959;DHT22;6544;51.666;6.634;2023-05-18T03:26:54;8.20;1.00
12959;DHT22;6544;51.666;6.634;2023-05-18T03:29:21;8.20;1.00
12959;DHT22;6544;51.666;6.634;2023-05-18T03:31:48;8.20;1.00
12959;DHT22;6544;51.666;6.634;2023-05-18T03:34:15;8.20;1.00
12959;DHT22;6544;51.666;6.634;2023-05-18T03:36:42;8.00;1.00
12959;DHT22;6544;51.666;6.634;2023-05-18T03:39:11;7.80;1.00
12959;DHT22;6544;51.666;6.634;2023-05-18T03:41:40;7.90;1.00
12959;DHT22;6544;51.666;6.634;2023-05-18T03:44:07;7.80;1.00
12959;DHT22;6544;51.666;6.634;2023-05-18T03:46:34;7.70;1.00
12959;DHT22;6544;51.666;6.634;2023-05-18T03:49:01;7.90;1.00
12959;DHT22;6544;51.666;6.634;2023-05-18T03:51:29;7.70;1.00
12959;DHT22;6544;51.666;6.634;2023-05-18T03:53:56;7.80;1.00
12959;DHT22;6544;51.666;6.634;2023-05-18T03:56:23;7.80;1.00
12959;DHT22;6544;51.666;6.634;2023-05-18T03:58:51;7.80;1.00
12959;DHT22;6544;51.666;6.634;2023-05-18T04:01:18;7.60;1.00
12959;DHT22;6544;51.666;6.634;2023-05-18T04:03:48;7.40;1.00
12959;DHT22;6544;51.666;6.634;2023-05-18T04:06:15;7.40;1.00
12959;DHT22;6544;51.666;6.634;2023-05-18T04:08:42;7.20;1.00
12959;DHT22;6544;51.666;6.634;2023-05-18T04:11:10;7.30;1.00
12959;DHT22;6544;51.666;6.634;2023-05-18T04:13:37;7.40;1.00
12959;DHT22;6544;51.666;6.634;2023-05-18T04:16:07;7.40;1.00
12959;DHT22;6544;51.666;6.634;2023-05-18T04:18:37;7.40;1.00
12959;DHT22;6544;51.666;6.634;2023-05-18T04:21:05;7.30;1.00
12959;DHT22;6544;51.666;6.634;2023-05-18T04:23:32;7.40;1.00
12959;DHT22;6544;51.666;6.634;2023-05-18T04:26:04;7.40;1.00
12959;DHT22;6544;51.666;6.634;2023-05-18T04:28:31;7.30;1.00
12959;DHT22;6544;51.666;6.634;2023-05-18T04:30:58;7.30;1.00
12959;DHT22;6544;51.666;6.634;2023-05-18T04:33:27;7.10;1.00
12959;DHT22;6544;51.666;6.634;2023-05-18T04:35:54;7.10;1.00
12959;DHT22;6544;51.666;6.634;2023-05-18T04:38:23;7.20;1.00
12959;DHT22;6544;51.666;6.634;2023-05-18T04:40:50;7.10;1.00
12959;DHT22;6544;51.666;6.634;2023-05-18T04:43:18;7.20;1.00
12959;DHT22;6544;51.666;6.634;2023-05-18T04:45:45;7.00;1.00
12959;DHT22;6544;51.666;6.634;2023-05-18T04:48:15;7.10;1.00
12959;DHT22;6544;51.666;6.634;2023-05-18T04:50:45;7.30;1.00
12959;DHT22;6544;51.666;6.634;2023-05-18T04:53:11;7.30;1.00
12959;DHT22;6544;51.666;6.634;2023-05-18T04:55:42;7.50;1.00
12959;DHT22;6544;51.666;6.634;2023-05-18T04:58:11;7.40;1.00
12959;DHT22;6544;51.666;6.634;2023-05-18T05:00:37;7.30;1.00
12959;DHT22;6544;51.666;6.634;2023-05-18T05:03:04;7.40;1.00
12959;DHT22;6544;51.666;6.634;2023-05-18T05:05:31;7.50;1.00
12959;DHT22;6544;51.666;6.634;2023-05-18T05:08:00;7.50;1.00
12959;DHT22;6544;51.666;6.634;2023-05-18T05:10:29;7.40;1.00
12959;DHT22;6544;51.666;6.634;2023-05-18T05:12:56;7.30;1.00
12959;DHT22;6544;51.666;6.634;2023-05-18T05:15:22;7.40;1.00
12959;DHT22;6544;51.666;6.634;2023-05-18T05:17:49;7.30;1.00
12959;DHT22;6544;51.666;6.634;2023-05-18T05:20:17;7.30;1.00
12959;DHT22;6544;51.666;6.634;2023-05-18T05:22:44;7.40;1.00
12959;DHT22;6544;51.666;6.634;2023-05-18T05:25:12;7.40;1.00
12959;DHT22;6544;51.666;6.634;2023-05-18T05:27:39;7.50;1.00
12959;DHT22;6544;51.666;6.634;2023-05-18T05:30:07;7.60;1.00
12959;DHT22;6544;51.666;6.634;2023-05-18T05:32:34;7.80;1.00
12959;DHT22;6544;51.666;6.634;2023-05-18T05:35:01;7.90;1.00
12959;DHT22;6544;51.666;6.634;2023-05-18T05:37:28;7.90;1.00
12959;DHT22;6544;51.666;6.634;2023-05-18T05:39:55;7.90;1.00
12959;DHT22;6544;51.666;6.634;2023-05-18T05:42:23;7.90;1.00
12959;DHT22;6544;51.666;6.634;2023-05-18T05:44:50;7.90;1.00
12959;DHT22;6544;51.666;6.634;2023-05-18T05:47:17;7.80;1.00
12959;DHT22;6544;51.666;6.634;2023-05-18T05:49:44;7.90;1.00
12959;DHT22;6544;51.666;6.634;2023-05-18T05:52:11;7.90;1.00
12959;DHT22;6544;51.666;6.634;2023-05-18T05:54:38;7.90;1.00
12959;DHT22;6544;51.666;6.634;2023-05-18T05:57:05;7.90;1.00
12959;DHT22;6544;51.666;6.634;2023-05-18T05:59:34;8.10;1.00
12959;DHT22;6544;51.666;6.634;2023-05-18T06:02:01;8.10;1.00
12959;DHT22;6544;51.666;6.634;2023-05-18T06:04:27;8.30;1.00
12959;DHT22;6544;51.666;6.634;2023-05-18T06:06:54;8.40;1.00
12959;DHT22;6544;51.666;6.634;2023-05-18T06:09:21;8.50;1.00
12959;DHT22;6544;51.666;6.634;2023-05-18T06:11:48;8.70;1.00
12959;DHT22;6544;51.666;6.634;2023-05-18T06:14:15;8.70;1.00
12959;DHT22;6544;51.666;6.634;2023-05-18T06:16:43;8.70;1.00
12959;DHT22;6544;51.666;6.634;2023-05-18T06:19:10;8.70;1.00
12959;DHT22;6544;51.666;6.634;2023-05-18T06:21:37;8.80;1.00
12959;DHT22;6544;51.666;6.634;2023-05-18T06:24:05;8.90;1.00
12959;DHT22;6544;51.666;6.634;2023-05-18T06:26:32;9.10;1.00
12959;DHT22;6544;51.666;6.634;2023-05-18T06:28:59;9.10;1.00
12959;DHT22;6544;51.666;6.634;2023-05-18T06:31:28;9.20;1.00
12959;DHT22;6544;51.666;6.634;2023-05-18T06:33:57;9.20;1.00
12959;DHT22;6544;51.666;6.634;2023-05-18T06:36:24;9.30;1.00
12959;DHT22;6544;51.666;6.634;2023-05-18T06:38:51;9.30;1.00
12959;DHT22;6544;51.666;6.634;2023-05-18T06:41:18;9.30;1.00
12959;DHT22;6544;51.666;6.634;2023-05-18T06:43:45;9.50;1.00
12959;DHT22;6544;51.666;6.634;2023-05-18T06:46:18;9.60;1.00
12959;DHT22;6544;51.666;6.634;2023-05-18T06:48:45;9.40;1.00
12959;DHT22;6544;51.666;6.634;2023-05-18T06:51:14;9.60;1.00
12959;DHT22;6544;51.666;6.634;2023-05-18T06:53:41;9.60;1.00
12959;DHT22;6544;51.666;6.634;2023-05-18T06:56:08;9.50;1.00
12959;DHT22;6544;51.666;6.634;2023-05-18T06:58:36;9.70;1.00
12959;DHT22;6544;51.666;6.634;2023-05-18T07:01:03;9.70;1.00
12959;DHT22;6544;51.666;6.634;2023-05-18T07:03:30;9.80;1.00
12959;DHT22;6544;51.666;6.634;2023-05-18T07:05:57;10.00;1.00
12959;DHT22;6544;51.666;6.634;2023-05-18T07:08:25;10.20;1.00
12959;DHT22;6544;51.666;6.634;2023-05-18T07:10:52;10.40;1.00
12959;DHT22;6544;51.666;6.634;2023-05-18T07:13:22;10.50;1.00
12959;DHT22;6544;51.666;6.634;2023-05-18T07:15:50;10.50;1.00
12959;DHT22;6544;51.666;6.634;2023-05-18T07:18:16;10.60;1.00
12959;DHT22;6544;51.666;6.634;2023-05-18T07:20:43;10.90;1.00
12959;DHT22;6544;51.666;6.634;2023-05-18T07:23:10;10.90;1.00
12959;DHT22;6544;51.666;6.634;2023-05-18T07:25:38;10.80;1.00
12959;DHT22;6544;51.666;6.634;2023-05-18T07:28:05;10.50;1.00
12959;DHT22;6544;51.666;6.634;2023-05-18T07:30:32;10.50;1.00
12959;DHT22;6544;51.666;6.634;2023-05-18T07:32:59;10.60;1.00
12959;DHT22;6544;51.666;6.634;2023-05-18T07:35:26;10.80;1.00
12959;DHT22;6544;51.666;6.634;2023-05-18T07:37:53;10.80;1.00
12959;DHT22;6544;51.666;6.634;2023-05-18T07:40:20;10.80;1.00
12959;DHT22;6544;51.666;6.634;2023-05-18T07:42:48;11.00;1.00
12959;DHT22;6544;51.666;6.634;2023-05-18T07:45:15;11.10;1.00
12959;DHT22;6544;51.666;6.634;2023-05-18T07:47:42;11.20;1.00
12959;DHT22;6544;51.666;6.634;2023-05-18T07:50:09;11.30;1.00
12959;DHT22;6544;51.666;6.634;2023-05-18T07:52:36;11.40;1.00
12959;DHT22;6544;51.666;6.634;2023-05-18T07:55:04;11.60;1.00
12959;DHT22;6544;51.666;6.634;2023-05-18T07:57:31;11.70;1.00
12959;DHT22;6544;51.666;6.634;2023-05-18T07:59:59;11.90;1.00
12959;DHT22;6544;51.666;6.634;2023-05-18T08:02:26;12.00;1.00
12959;DHT22;6544;51.666;6.634;2023-05-18T08:04:53;12.00;1.00
12959;DHT22;6544;51.666;6.634;2023-05-18T08:07:20;12.00;1.00
12959;DHT22;6544;51.666;6.634;2023-05-18T08:09:48;12.10;1.00
12959;DHT22;6544;51.666;6.634;2023-05-18T08:12:15;12.00;1.00
12959;DHT22;6544;51.666;6.634;2023-05-18T08:14:42;12.10;1.00
12959;DHT22;6544;51.666;6.634;2023-05-18T08:17:10;12.20;1.00
12959;DHT22;6544;51.666;6.634;2023-05-18T08:19:37;12.40;1.00
12959;DHT22;6544;51.666;6.634;2023-05-18T08:22:04;12.40;1.00
12959;DHT22;6544;51.666;6.634;2023-05-18T08:24:31;12.10;1.00
12959;DHT22;6544;51.666;6.634;2023-05-18T08:26:58;12.10;1.00
12959;DHT22;6544;51.666;6.634;2023-05-18T08:29:25;12.20;1.00
12959;DHT22;6544;51.666;6.634;2023-05-18T08:31:51;12.40;1.00
12959;DHT22;6544;51.666;6.634;2023-05-18T08:34:20;12.50;1.00
12959;DHT22;6544;51.666;6.634;2023-05-18T08:36:47;12.00;1.00
12959;DHT22;6544;51.666;6.634;2023-05-18T08:39:14;12.00;1.00
12959;DHT22;6544;51.666;6.634;2023-05-18T08:41:50;12.10;1.00
12959;DHT22;6544;51.666;6.634;2023-05-18T08:44:21;12.00;1.00
12959;DHT22;6544;51.666;6.634;2023-05-18T08:46:49;12.20;1.00
12959;DHT22;6544;51.666;6.634;2023-05-18T08:49:17;12.10;1.00
12959;DHT22;6544;51.666;6.634;2023-05-18T08:51:52;11.80;1.00
12959;DHT22;6544;51.666;6.634;2023-05-18T08:54:21;12.00;1.00
12959;DHT22;6544;51.666;6.634;2023-05-18T08:56:48;12.10;1.00
12959;DHT22;6544;51.666;6.634;2023-05-18T08:59:18;12.10;1.00
12959;DHT22;6544;51.666;6.634;2023-05-18T09:01:48;12.30;1.00
12959;DHT22;6544;51.666;6.634;2023-05-18T09:04:17;12.20;1.00
12959;DHT22;6544;51.666;6.634;2023-05-18T09:06:47;12.40;1.00
12959;DHT22;6544;51.666;6.634;2023-05-18T09:09:14;12.50;1.00
12959;DHT22;6544;51.666;6.634;2023-05-18T09:11:41;12.30;1.00
12959;DHT22;6544;51.666;6.634;2023-05-18T09:14:08;12.40;1.00
12959;DHT22;6544;51.666;6.634;2023-05-18T09:16:36;12.80;1.00
12959;DHT22;6544;51.666;6.634;2023-05-18T09:19:02;13.00;1.00
12959;DHT22;6544;51.666;6.634;2023-05-18T09:21:30;13.00;1.00
12959;DHT22;6544;51.666;6.634;2023-05-18T09:23:59;12.90;1.00
12959;DHT22;6544;51.666;6.634;2023-05-18T09:26:26;13.10;1.00
12959;DHT22;6544;51.666;6.634;2023-05-18T09:28:53;13.10;1.00
12959;DHT22;6544;51.666;6.634;2023-05-18T09:31:21;13.10;1.00
12959;DHT22;6544;51.666;6.634;2023-05-18T09:33:51;13.20;1.00
12959;DHT22;6544;51.666;6.634;2023-05-18T09:36:23;13.50;1.00
12959;DHT22;6544;51.666;6.634;2023-05-18T09:38:51;13.30;1.00
12959;DHT22;6544;51.666;6.634;2023-05-18T09:41:19;13.60;1.00
12959;DHT22;6544;51.666;6.634;2023-05-18T09:43:47;13.70;1.00
12959;DHT22;6544;51.666;6.634;2023-05-18T09:46:15;13.90;1.00
12959;DHT22;6544;51.666;6.634;2023-05-18T09:48:46;13.90;1.00
12959;DHT22;6544;51.666;6.634;2023-05-18T09:51:14;14.20;1.00
12959;DHT22;6544;51.666;6.634;2023-05-18T09:53:43;14.40;1.00
12959;DHT22;6544;51.666;6.634;2023-05-18T09:56:16;14.20;99.90
12959;DHT22;6544;51.666;6.634;2023-05-18T09:58:45;14.00;99.90
12959;DHT22;6544;51.666;6.634;2023-05-18T10:01:13;14.00;99.90
12959;DHT22;6544;51.666;6.634;2023-05-18T10:03:40;14.10;99.90
12959;DHT22;6544;51.666;6.634;2023-05-18T10:06:10;14.30;99.90
12959;DHT22;6544;51.666;6.634;2023-05-18T10:08:38;14.50;99.90
12959;DHT22;6544;51.666;6.634;2023-05-18T10:11:05;14.40;99.90
12959;DHT22;6544;51.666;6.634;2023-05-18T10:13:34;14.20;99.90
12959;DHT22;6544;51.666;6.634;2023-05-18T10:16:03;14.50;99.90
12959;DHT22;6544;51.666;6.634;2023-05-18T10:18:33;14.80;99.90
12959;DHT22;6544;51.666;6.634;2023-05-18T10:21:01;15.10;99.90
12959;DHT22;6544;51.666;6.634;2023-05-18T10:23:30;14.90;99.90
12959;DHT22;6544;51.666;6.634;2023-05-18T10:25:58;14.50;99.90
12959;DHT22;6544;51.666;6.634;2023-05-18T10:28:26;14.00;99.90
12959;DHT22;6544;51.666;6.634;2023-05-18T10:30:56;14.20;99.90
12959;DHT22;6544;51.666;6.634;2023-05-18T10:33:25;14.30;99.90
12959;DHT22;6544;51.666;6.634;2023-05-18T10:35:53;14.50;99.90
12959;DHT22;6544;51.666;6.634;2023-05-18T10:38:22;14.90;99.90
12959;DHT22;6544;51.666;6.634;2023-05-18T10:40:51;14.90;99.90
12959;DHT22;6544;51.666;6.634;2023-05-18T10:43:19;14.50;99.90
12959;DHT22;6544;51.666;6.634;2023-05-18T10:45:50;14.60;99.90
12959;DHT22;6544;51.666;6.634;2023-05-18T10:48:19;14.40;99.90
12959;DHT22;6544;51.666;6.634;2023-05-18T10:50:49;14.60;99.90
12959;DHT22;6544;51.666;6.634;2023-05-18T10:53:17;15.10;99.90
12959;DHT22;6544;51.666;6.634;2023-05-18T10:55:44;15.50;99.90
12959;DHT22;6544;51.666;6.634;2023-05-18T10:58:12;15.60;99.90
12959;DHT22;6544;51.666;6.634;2023-05-18T11:00:43;15.40;99.90
12959;DHT22;6544;51.666;6.634;2023-05-18T11:03:12;14.90;99.90
12959;DHT22;6544;51.666;6.634;2023-05-18T11:05:40;14.90;99.90
12959;DHT22;6544;51.666;6.634;2023-05-18T11:08:09;15.00;99.90
12959;DHT22;6544;51.666;6.634;2023-05-18T11:10:39;15.20;99.90
12959;DHT22;6544;51.666;6.634;2023-05-18T11:13:07;15.30;99.90
12959;DHT22;6544;51.666;6.634;2023-05-18T11:16:06;14.90;99.90
12959;DHT22;6544;51.666;6.634;2023-05-18T11:18:39;15.00;99.90
12959;DHT22;6544;51.666;6.634;2023-05-18T11:21:49;15.50;99.90
12959;DHT22;6544;51.666;6.634;2023-05-18T11:24:20;15.40;99.90
12959;DHT22;6544;51.666;6.634;2023-05-18T11:26:49;15.30;99.90
12959;DHT22;6544;51.666;6.634;2023-05-18T11:29:18;15.70;99.90
12959;DHT22;6544;51.666;6.634;2023-05-18T11:31:47;15.60;99.90
12959;DHT22;6544;51.666;6.634;2023-05-18T11:34:39;15.90;99.90
12959;DHT22;6544;51.666;6.634;2023-05-18T11:37:06;15.60;99.90
12959;DHT22;6544;51.666;6.634;2023-05-18T11:39:36;16.10;99.90
12959;DHT22;6544;51.666;6.634;2023-05-18T11:42:05;16.30;99.90
12959;DHT22;6544;51.666;6.634;2023-05-18T11:44:33;16.40;99.90
12959;DHT22;6544;51.666;6.634;2023-05-18T11:47:01;16.70;99.90
12959;DHT22;6544;51.666;6.634;2023-05-18T11:49:30;16.50;99.90
12959;DHT22;6544;51.666;6.634;2023-05-18T11:52:17;16.40;99.90
12959;DHT22;6544;51.666;6.634;2023-05-18T11:54:48;16.60;99.90
12959;DHT22;6544;51.666;6.634;2023-05-18T11:57:16;16.30;99.90
12959;DHT22;6544;51.666;6.634;2023-05-18T11:59:44;16.10;99.90
12959;DHT22;6544;51.666;6.634;2023-05-18T12:02:17;16.50;99.90
12959;DHT22;6544;51.666;6.634;2023-05-18T12:04:45;16.70;99.90
12959;DHT22;6544;51.666;6.634;2023-05-18T12:07:13;16.80;99.90
12959;DHT22;6544;51.666;6.634;2023-05-18T12:09:41;16.40;99.90
12959;DHT22;6544;51.666;6.634;2023-05-18T12:12:12;16.80;99.90
12959;DHT22;6544;51.666;6.634;2023-05-18T12:14:42;16.80;99.90
12959;DHT22;6544;51.666;6.634;2023-05-18T12:17:10;17.00;99.90
12959;DHT22;6544;51.666;6.634;2023-05-18T12:19:40;16.60;99.90
12959;DHT22;6544;51.666;6.634;2023-05-18T12:22:08;16.60;99.90
12959;DHT22;6544;51.666;6.634;2023-05-18T12:24:36;16.90;99.90
12959;DHT22;6544;51.666;6.634;2023-05-18T12:27:04;17.20;99.90
12959;DHT22;6544;51.666;6.634;2023-05-18T12:29:33;17.60;99.90
12959;DHT22;6544;51.666;6.634;2023-05-18T12:32:05;17.70;99.90
12959;DHT22;6544;51.666;6.634;2023-05-18T12:34:32;18.00;99.90
12959;DHT22;6544;51.666;6.634;2023-05-18T12:36:59;18.00;99.90
12959;DHT22;6544;51.666;6.634;2023-05-18T12:39:26;17.90;99.90
12959;DHT22;6544;51.666;6.634;2023-05-18T12:41:53;17.50;99.90
12959;DHT22;6544;51.666;6.634;2023-05-18T12:44:35;17.70;99.90
12959;DHT22;6544;51.666;6.634;2023-05-18T12:47:02;18.40;99.90
12959;DHT22;6544;51.666;6.634;2023-05-18T12:49:35;18.60;99.90
12959;DHT22;6544;51.666;6.634;2023-05-18T12:52:08;18.00;99.90
12959;DHT22;6544;51.666;6.634;2023-05-18T12:54:36;18.40;99.90
12959;DHT22;6544;51.666;6.634;2023-05-18T12:57:15;18.20;99.90
12959;DHT22;6544;51.666;6.634;2023-05-18T12:59:48;18.60;99.90
12959;DHT22;6544;51.666;6.634;2023-05-18T13:02:30;18.70;99.90
12959;DHT22;6544;51.666;6.634;2023-05-18T13:05:08;18.60;99.90
12959;DHT22;6544;51.666;6.634;2023-05-18T13:07:36;19.20;99.90
12959;DHT22;6544;51.666;6.634;2023-05-18T13:10:08;19.60;99.90
12959;DHT22;6544;51.666;6.634;2023-05-18T13:12:42;19.30;99.90
12959;DHT22;6544;51.666;6.634;2023-05-18T13:15:12;19.10;99.90
12959;DHT22;6544;51.666;6.634;2023-05-18T13:17:47;18.10;99.90
12959;DHT22;6544;51.666;6.634;2023-05-18T13:20:16;18.10;99.90
12959;DHT22;6544;51.666;6.634;2023-05-18T13:22:43;18.60;99.90
12959;DHT22;6544;51.666;6.634;2023-05-18T13:25:10;18.10;99.90
12959;DHT22;6544;51.666;6.634;2023-05-18T13:27:37;18.20;99.90
12959;DHT22;6544;51.666;6.634;2023-05-18T13:30:05;18.00;99.90
12959;DHT22;6544;51.666;6.634;2023-05-18T13:32:34;18.50;99.90
12959;DHT22;6544;51.666;6.634;2023-05-18T13:35:01;17.90;99.90
12959;DHT22;6544;51.666;6.634;2023-05-18T13:37:28;17.90;99.90
12959;DHT22;6544;51.666;6.634;2023-05-18T13:39:55;18.20;99.90
12959;DHT22;6544;51.666;6.634;2023-05-18T13:42:22;18.20;99.90
12959;DHT22;6544;51.666;6.634;2023-05-18T13:44:49;18.10;99.90
12959;DHT22;6544;51.666;6.634;2023-05-18T13:47:16;17.60;99.90
12959;DHT22;6544;51.666;6.634;2023-05-18T13:49:44;17.80;99.90
12959;DHT22;6544;51.666;6.634;2023-05-18T13:52:11;17.30;99.90
12959;DHT22;6544;51.666;6.634;2023-05-18T13:54:38;17.30;99.90
12959;DHT22;6544;51.666;6.634;2023-05-18T13:57:05;17.30;99.90
12959;DHT22;6544;51.666;6.634;2023-05-18T13:59:33;17.40;99.90
12959;DHT22;6544;51.666;6.634;2023-05-18T14:02:00;16.90;99.90
12959;DHT22;6544;51.666;6.634;2023-05-18T14:04:27;17.50;99.90
12959;DHT22;6544;51.666;6.634;2023-05-18T14:06:55;17.10;99.90
12959;DHT22;6544;51.666;6.634;2023-05-18T14:09:22;17.00;99.90
12959;DHT22;6544;51.666;6.634;2023-05-18T14:11:50;16.80;99.90
12959;DHT22;6544;51.666;6.634;2023-05-18T14:14:17;16.90;99.90
12959;DHT22;6544;51.666;6.634;2023-05-18T14:16:44;16.50;99.90
12959;DHT22;6544;51.666;6.634;2023-05-18T14:19:11;16.40;99.90
12959;DHT22;6544;51.666;6.634;2023-05-18T14:21:38;16.50;99.90
12959;DHT22;6544;51.666;6.634;2023-05-18T14:24:07;16.70;99.90
12959;DHT22;6544;51.666;6.634;2023-05-18T14:26:35;16.70;99.90
12959;DHT22;6544;51.666;6.634;2023-05-18T14:29:02;16.70;99.90
12959;DHT22;6544;51.666;6.634;2023-05-18T14:31:29;16.30;99.90
12959;DHT22;6544;51.666;6.634;2023-05-18T14:33:55;16.40;99.90
12959;DHT22;6544;51.666;6.634;2023-05-18T14:36:22;16.70;99.90
12959;DHT22;6544;51.666;6.634;2023-05-18T14:38:49;16.80;99.90
12959;DHT22;6544;51.666;6.634;2023-05-18T14:41:17;16.60;99.90
12959;DHT22;6544;51.666;6.634;2023-05-18T14:43:45;16.50;99.90
12959;DHT22;6544;51.666;6.634;2023-05-18T14:46:15;16.20;99.90
12959;DHT22;6544;51.666;6.634;2023-05-18T14:48:42;16.10;99.90
12959;DHT22;6544;51.666;6.634;2023-05-18T14:51:09;16.20;99.90
12959;DHT22;6544;51.666;6.634;2023-05-18T14:53:36;16.10;99.90
12959;DHT22;6544;51.666;6.634;2023-05-18T14:56:03;15.80;99.90
12959;DHT22;6544;51.666;6.634;2023-05-18T14:58:34;15.90;99.90
12959;DHT22;6544;51.666;6.634;2023-05-18T15:01:01;16.10;99.90
12959;DHT22;6544;51.666;6.634;2023-05-18T15:03:28;16.40;99.90
12959;DHT22;6544;51.666;6.634;2023-05-18T15:05:55;16.30;99.90
12959;DHT22;6544;51.666;6.634;2023-05-18T15:08:22;16.30;99.90
12959;DHT22;6544;51.666;6.634;2023-05-18T15:10:49;16.10;99.90
12959;DHT22;6544;51.666;6.634;2023-05-18T15:13:16;15.80;99.90
12959;DHT22;6544;51.666;6.634;2023-05-18T15:15:44;16.10;99.90
12959;DHT22;6544;51.666;6.634;2023-05-18T15:18:11;16.20;99.90
12959;DHT22;6544;51.666;6.634;2023-05-18T15:20:38;16.10;99.90
12959;DHT22;6544;51.666;6.634;2023-05-18T15:23:06;16.00;99.90
12959;DHT22;6544;51.666;6.634;2023-05-18T15:25:33;16.00;99.90
12959;DHT22;6544;51.666;6.634;2023-05-18T15:28:00;16.00;99.90
12959;DHT22;6544;51.666;6.634;2023-05-18T15:30:27;15.90;99.90
12959;DHT22;6544;51.666;6.634;2023-05-18T15:32:55;16.10;99.90
12959;DHT22;6544;51.666;6.634;2023-05-18T15:35:29;16.10;99.90
12959;DHT22;6544;51.666;6.634;2023-05-18T15:37:56;15.90;99.90
12959;DHT22;6544;51.666;6.634;2023-05-18T15:40:23;15.90;99.90
12959;DHT22;6544;51.666;6.634;2023-05-18T15:42:50;16.00;99.90
12959;DHT22;6544;51.666;6.634;2023-05-18T15:45:17;16.00;99.90
12959;DHT22;6544;51.666;6.634;2023-05-18T15:47:44;16.00;99.90
12959;DHT22;6544;51.666;6.634;2023-05-18T15:50:12;16.00;99.90
12959;DHT22;6544;51.666;6.634;2023-05-18T15:52:39;15.80;99.90
12959;DHT22;6544;51.666;6.634;2023-05-18T15:55:07;15.90;99.90
12959;DHT22;6544;51.666;6.634;2023-05-18T15:57:34;15.90;99.90
12959;DHT22;6544;51.666;6.634;2023-05-18T16:00:01;15.80;99.90
12959;DHT22;6544;51.666;6.634;2023-05-18T16:02:28;15.80;99.90
12959;DHT22;6544;51.666;6.634;2023-05-18T16:04:55;15.90;99.90
12959;DHT22;6544;51.666;6.634;2023-05-18T16:07:23;15.80;99.90
12959;DHT22;6544;51.666;6.634;2023-05-18T16:09:50;15.80;99.90